sensor_id;sensor_type;location;lat;lon;timestamp;pressure;altitude;pressure_sealevel;temperature;humidity
9257;BME280;4665;51.368;6.782;2022-09-09T00:04:03;100523.25;;;14.56;100.00
9257;BME280;4665;51.368;6.782;2022-09-09T00:06:33;100534.28;;;14.52;100.00
9257;BME280;4665;51.368;6.782;2022-09-09T00:09:16;100532.47;;;14.53;100.00
9257;BME280;4665;51.368;6.782;2022-09-09T00:11:46;100530.47;;;14.55;100.00
9257;BME280;4665;51.368;6.782;2022-09-09T00:17:01;100542.19;;;14.54;100.00
9257;BME280;4665;51.368;6.782;2022-09-09T00:19:37;100535.81;;;14.55;100.00
9257;BME280;4665;51.368;6.782;2022-09-09T00:24:51;100530.47;;;14.55;100.00
9257;BME280;4665;51.368;6.782;2022-09-09T00:27:41;100531.06;;;14.57;100.00
9257;BME280;4665;51.368;6.782;2022-09-09T00:30:23;100527.41;;;14.58;100.00
9257;BME280;4665;51.368;6.782;2022-09-09T00:32:53;100530.91;;;14.59;100.00
9257;BME280;4665;51.368;6.782;2022-09-09T00:35:44;100525.53;;;14.59;100.00
9257;BME280;4665;51.368;6.782;2022-09-09T00:38:14;100531.06;;;14.57;100.00
9257;BME280;4665;51.368;6.782;2022-09-09T00:41:05;100535.63;;;14.57;100.00
9257;BME280;4665;51.368;6.782;2022-09-09T00:43:35;100538.50;;;14.55;100.00
9257;BME280;4665;51.368;6.782;2022-09-09T00:51:57;100532.47;;;14.53;100.00
9257;BME280;4665;51.368;6.782;2022-09-09T00:54:44;100535.97;;;14.53;100.00
9257;BME280;4665;51.368;6.782;2022-09-09T00:57:34;100535.97;;;14.53;100.00
9257;BME280;4665;51.368;6.782;2022-09-09T01:00:22;100537.47;;;14.56;100.00
9257;BME280;4665;51.368;6.782;2022-09-09T01:03:21;100529.44;;;14.56;100.00
9257;BME280;4665;51.368;6.782;2022-09-09T01:06:12;100532.13;;;14.56;100.00
9257;BME280;4665;51.368;6.782;2022-09-09T01:11:26;100523.25;;;14.56;100.00
9257;BME280;4665;51.368;6.782;2022-09-09T01:14:14;100528.41;;;14.57;100.00
9257;BME280;4665;51.368;6.782;2022-09-09T01:16:44;100523.25;;;14.56;100.00
9257;BME280;4665;51.368;6.782;2022-09-09T01:19:18;100524.91;;;14.57;100.00
9257;BME280;4665;51.368;6.782;2022-09-09T01:24:38;100514.53;;;14.53;100.00
9257;BME280;4665;51.368;6.782;2022-09-09T01:27:06;100514.69;;;14.52;100.00
9257;BME280;4665;51.368;6.782;2022-09-09T01:29:33;100515.72;;;14.51;100.00
9257;BME280;4665;51.368;6.782;2022-09-09T01:32:00;100516.94;;;14.48;100.00
9257;BME280;4665;51.368;6.782;2022-09-09T01:34:31;100512.31;;;14.42;100.00
9257;BME280;4665;51.368;6.782;2022-09-09T01:37:10;100511.50;;;14.42;100.00
9257;BME280;4665;51.368;6.782;2022-09-09T01:39:38;100514.53;;;14.39;100.00
9257;BME280;4665;51.368;6.782;2022-09-09T01:42:07;100516.59;;;14.37;100.00
9257;BME280;4665;51.368;6.782;2022-09-09T01:44:34;100515.94;;;14.35;100.00
9257;BME280;4665;51.368;6.782;2022-09-09T01:47:01;100509.28;;;14.30;100.00
9257;BME280;4665;51.368;6.782;2022-09-09T01:49:27;100487.31;;;14.20;100.00
9257;BME280;4665;51.368;6.782;2022-09-09T01:51:54;100498.94;;;14.27;100.00
9257;BME280;4665;51.368;6.782;2022-09-09T01:54:22;100493.94;;;14.24;100.00
9257;BME280;4665;51.368;6.782;2022-09-09T01:59:40;100511.13;;;14.30;100.00
9257;BME280;4665;51.368;6.782;2022-09-09T02:02:11;100500.75;;;14.27;100.00
9257;BME280;4665;51.368;6.782;2022-09-09T02:04:41;100511.31;;;14.28;100.00
9257;BME280;4665;51.368;6.782;2022-09-09T02:09:47;100508.44;;;14.30;100.00
9257;BME280;4665;51.368;6.782;2022-09-09T02:12:18;100508.81;;;14.27;100.00
9257;BME280;4665;51.368;6.782;2022-09-09T02:14:55;100504.31;;;14.27;100.00
9257;BME280;4665;51.368;6.782;2022-09-09T02:17:33;100503.44;;;14.27;100.00
9257;BME280;4665;51.368;6.782;2022-09-09T02:20:07;100502.88;;;14.31;100.00
9257;BME280;4665;51.368;6.782;2022-09-09T02:22:34;100511.56;;;14.34;100.00
9257;BME280;4665;51.368;6.782;2022-09-09T02:25:02;100509.53;;;14.36;100.00
9257;BME280;4665;51.368;6.782;2022-09-09T02:27:30;100505.88;;;14.37;100.00
9257;BME280;4665;51.368;6.782;2022-09-09T02:29:56;100505.66;;;14.38;100.00
9257;BME280;4665;51.368;6.782;2022-09-09T02:32:25;100501.13;;;14.39;100.00
9257;BME280;4665;51.368;6.782;2022-09-09T02:34:57;100498.19;;;14.34;100.00
9257;BME280;4665;51.368;6.782;2022-09-09T02:37:28;100505.31;;;14.41;100.00
9257;BME280;4665;51.368;6.782;2022-09-09T02:39:57;100513.13;;;14.43;100.00
9257;BME280;4665;51.368;6.782;2022-09-09T02:42:22;100516.47;;;14.45;100.00
9257;BME280;4665;51.368;6.782;2022-09-09T02:44:49;100487.66;;;14.32;100.00
9257;BME280;4665;51.368;6.782;2022-09-09T02:47:41;100516.47;;;14.45;100.00
9257;BME280;4665;51.368;6.782;2022-09-09T02:50:15;100502.06;;;14.46;100.00
9257;BME280;4665;51.368;6.782;2022-09-09T02:53:10;100495.50;;;14.48;100.00
9257;BME280;4665;51.368;6.782;2022-09-09T02:56:17;100500.00;;;14.48;100.00
9257;BME280;4665;51.368;6.782;2022-09-09T02:58:41;100493.66;;;14.49;100.00
9257;BME280;4665;51.368;6.782;2022-09-09T03:01:07;100497.16;;;14.49;100.00
9257;BME280;4665;51.368;6.782;2022-09-09T03:03:34;100502.81;;;14.55;100.00
9257;BME280;4665;51.368;6.782;2022-09-09T03:06:00;100498.91;;;14.57;100.00
9257;BME280;4665;51.368;6.782;2022-09-09T03:08:26;100495.41;;;14.57;100.00
9257;BME280;4665;51.368;6.782;2022-09-09T03:10:54;100480.69;;;14.52;100.00
9257;BME280;4665;51.368;6.782;2022-09-09T03:13:19;100485.34;;;14.59;100.00
9257;BME280;4665;51.368;6.782;2022-09-09T03:15:44;100495.88;;;14.60;100.00
9257;BME280;4665;51.368;6.782;2022-09-09T03:18:10;100488.50;;;14.62;100.00
9257;BME280;4665;51.368;6.782;2022-09-09T03:20:35;100490.13;;;14.63;100.00
9257;BME280;4665;51.368;6.782;2022-09-09T03:23:01;100483.13;;;14.62;100.00
9257;BME280;4665;51.368;6.782;2022-09-09T03:25:27;100484.13;;;14.61;100.00
9257;BME280;4665;51.368;6.782;2022-09-09T03:27:54;100467.59;;;14.58;100.00
9257;BME280;4665;51.368;6.782;2022-09-09T03:30:24;100480.22;;;14.64;100.00
9257;BME280;4665;51.368;6.782;2022-09-09T03:32:50;100489.19;;;14.71;100.00
9257;BME280;4665;51.368;6.782;2022-09-09T03:35:16;100488.81;;;14.74;100.00
9257;BME280;4665;51.368;6.782;2022-09-09T03:37:42;100495.84;;;14.75;100.00
9257;BME280;4665;51.368;6.782;2022-09-09T03:40:08;100491.28;;;14.76;100.00
9257;BME280;4665;51.368;6.782;2022-09-09T03:42:35;100491.94;;;14.78;100.00
9257;BME280;4665;51.368;6.782;2022-09-09T03:45:03;100488.81;;;14.74;100.00
9257;BME280;4665;51.368;6.782;2022-09-09T03:47:28;100473.66;;;14.66;100.00
9257;BME280;4665;51.368;6.782;2022-09-09T03:49:55;100474.53;;;14.67;100.00
9257;BME280;4665;51.368;6.782;2022-09-09T03:52:20;100487.41;;;14.78;100.00
9257;BME280;4665;51.368;6.782;2022-09-09T03:54:46;100492.59;;;14.80;100.00
9257;BME280;4665;51.368;6.782;2022-09-09T03:57:13;100490.56;;;14.82;100.00
9257;BME280;4665;51.368;6.782;2022-09-09T03:59:41;100472.28;;;14.70;100.00
9257;BME280;4665;51.368;6.782;2022-09-09T04:02:07;100461.13;;;14.67;100.00
9257;BME280;4665;51.368;6.782;2022-09-09T04:04:32;100469.34;;;14.65;100.00
9257;BME280;4665;51.368;6.782;2022-09-09T04:06:57;100500.81;;;14.78;100.00
9257;BME280;4665;51.368;6.782;2022-09-09T04:09:23;100471.75;;;14.60;100.00
9257;BME280;4665;51.368;6.782;2022-09-09T04:11:48;100491.22;;;14.69;100.00
9257;BME280;4665;51.368;6.782;2022-09-09T04:14:14;100473.78;;;14.58;100.00
9257;BME280;4665;51.368;6.782;2022-09-09T04:16:40;100473.19;;;14.48;100.00
9257;BME280;4665;51.368;6.782;2022-09-09T04:19:10;100494.84;;;14.61;100.00
9257;BME280;4665;51.368;6.782;2022-09-09T04:21:38;100491.53;;;14.59;100.00
9257;BME280;4665;51.368;6.782;2022-09-09T04:24:05;100477.75;;;14.47;100.00
9257;BME280;4665;51.368;6.782;2022-09-09T04:26:31;100497.63;;;14.53;100.00
9257;BME280;4665;51.368;6.782;2022-09-09T04:28:56;100493.47;;;14.50;100.00
9257;BME280;4665;51.368;6.782;2022-09-09T04:31:22;100491.13;;;14.47;100.00
9257;BME280;4665;51.368;6.782;2022-09-09T04:33:49;100495.69;;;14.47;100.00
9257;BME280;4665;51.368;6.782;2022-09-09T04:36:15;100483.47;;;14.44;100.00
9257;BME280;4665;51.368;6.782;2022-09-09T04:38:41;100482.44;;;14.45;100.00
9257;BME280;4665;51.368;6.782;2022-09-09T04:41:07;100481.63;;;14.45;100.00
9257;BME280;4665;51.368;6.782;2022-09-09T04:43:33;100468.97;;;14.39;100.00
9257;BME280;4665;51.368;6.782;2022-09-09T04:45:59;100471.66;;;14.39;100.00
9257;BME280;4665;51.368;6.782;2022-09-09T04:48:25;100467.31;;;14.38;100.00
9257;BME280;4665;51.368;6.782;2022-09-09T04:51:08;100488.94;;;14.51;100.00
9257;BME280;4665;51.368;6.782;2022-09-09T04:53:34;100484.22;;;14.53;100.00
9257;BME280;4665;51.368;6.782;2022-09-09T04:56:11;100482.44;;;14.45;100.00
9257;BME280;4665;51.368;6.782;2022-09-09T04:58:37;100498.31;;;14.55;100.00
9257;BME280;4665;51.368;6.782;2022-09-09T05:01:09;100484.13;;;14.46;100.00
9257;BME280;4665;51.368;6.782;2022-09-09T05:03:35;100480.88;;;14.51;100.00
9257;BME280;4665;51.368;6.782;2022-09-09T05:06:07;100500.22;;;14.61;100.00
9257;BME280;4665;51.368;6.782;2022-09-09T05:08:34;100490.31;;;14.62;100.00
9257;BME280;4665;51.368;6.782;2022-09-09T05:10:59;100498.81;;;14.65;100.00
9257;BME280;4665;51.368;6.782;2022-09-09T05:13:26;100483.47;;;14.59;100.00
9257;BME280;4665;51.368;6.782;2022-09-09T05:15:54;100476.84;;;14.55;100.00
9257;BME280;4665;51.368;6.782;2022-09-09T05:18:20;100482.47;;;14.60;100.00
9257;BME280;4665;51.368;6.782;2022-09-09T05:20:47;100476.19;;;14.53;100.00
9257;BME280;4665;51.368;6.782;2022-09-09T05:23:13;100478.50;;;14.56;100.00
9257;BME280;4665;51.368;6.782;2022-09-09T05:25:39;100493.28;;;14.67;100.00
9257;BME280;4665;51.368;6.782;2022-09-09T05:28:05;100468.44;;;14.58;100.00
9257;BME280;4665;51.368;6.782;2022-09-09T05:30:32;100466.41;;;14.60;100.00
9257;BME280;4665;51.368;6.782;2022-09-09T05:32:57;100486.16;;;14.74;100.00
9257;BME280;4665;51.368;6.782;2022-09-09T05:35:23;100477.47;;;14.72;100.00
9257;BME280;4665;51.368;6.782;2022-09-09T05:37:48;100459.63;;;14.64;100.00
9257;BME280;4665;51.368;6.782;2022-09-09T05:40:14;100459.44;;;14.66;100.00
9257;BME280;4665;51.368;6.782;2022-09-09T05:42:40;100467.28;;;14.67;100.00
9257;BME280;4665;51.368;6.782;2022-09-09T05:45:07;100492.59;;;14.80;100.00
9257;BME280;4665;51.368;6.782;2022-09-09T05:47:33;100476.88;;;14.77;100.00
9257;BME280;4665;51.368;6.782;2022-09-09T05:49:58;100473.31;;;14.69;100.00
9257;BME280;4665;51.368;6.782;2022-09-09T05:52:24;100486.84;;;14.83;100.00
9257;BME280;4665;51.368;6.782;2022-09-09T05:54:51;100488.91;;;14.81;100.00
9257;BME280;4665;51.368;6.782;2022-09-09T05:57:16;100497.38;;;14.84;100.00
9257;BME280;4665;51.368;6.782;2022-09-09T05:59:42;100493.50;;;14.87;100.00
9257;BME280;4665;51.368;6.782;2022-09-09T06:02:09;100482.50;;;14.82;100.00
9257;BME280;4665;51.368;6.782;2022-09-09T06:04:34;100495.44;;;14.93;100.00
9257;BME280;4665;51.368;6.782;2022-09-09T06:07:00;100473.91;;;14.86;100.00
9257;BME280;4665;51.368;6.782;2022-09-09T06:09:26;100493.19;;;14.97;100.00
9257;BME280;4665;51.368;6.782;2022-09-09T06:11:51;100486.34;;;14.94;100.00
9257;BME280;4665;51.368;6.782;2022-09-09T06:14:17;100486.56;;;14.92;100.00
9257;BME280;4665;51.368;6.782;2022-09-09T06:16:46;100479.91;;;14.88;100.00
9257;BME280;4665;51.368;6.782;2022-09-09T06:19:12;100480.34;;;14.92;100.00
9257;BME280;4665;51.368;6.782;2022-09-09T06:21:38;100483.47;;;14.96;100.00
9257;BME280;4665;51.368;6.782;2022-09-09T06:24:04;100481.22;;;14.99;100.00
9257;BME280;4665;51.368;6.782;2022-09-09T06:26:32;100483.72;;;15.01;100.00
9257;BME280;4665;51.368;6.782;2022-09-09T06:28:58;100488.72;;;15.04;100.00
9257;BME280;4665;51.368;6.782;2022-09-09T06:31:26;100512.00;;;15.18;100.00
9257;BME280;4665;51.368;6.782;2022-09-09T06:33:55;100513.06;;;15.24;100.00
9257;BME280;4665;51.368;6.782;2022-09-09T06:36:26;100500.28;;;15.26;100.00
9257;BME280;4665;51.368;6.782;2022-09-09T06:38:52;100503.22;;;15.31;100.00
9257;BME280;4665;51.368;6.782;2022-09-09T06:41:19;100499.53;;;15.32;100.00
9257;BME280;4665;51.368;6.782;2022-09-09T06:43:46;100502.00;;;15.33;100.00
9257;BME280;4665;51.368;6.782;2022-09-09T06:48:42;100511.09;;;15.32;100.00
9257;BME280;4665;51.368;6.782;2022-09-09T06:51:09;100510.91;;;15.34;100.00
9257;BME280;4665;51.368;6.782;2022-09-09T06:53:40;100509.88;;;15.35;100.00
9257;BME280;4665;51.368;6.782;2022-09-09T06:56:44;100515.41;;;15.33;100.00
9257;BME280;4665;51.368;6.782;2022-09-09T06:59:10;100517.28;;;15.33;100.00
9257;BME280;4665;51.368;6.782;2022-09-09T07:01:41;100516.38;;;15.47;100.00
9257;BME280;4665;51.368;6.782;2022-09-09T07:04:09;100518.16;;;15.62;100.00
9257;BME280;4665;51.368;6.782;2022-09-09T07:06:41;100518.03;;;15.70;100.00
9257;BME280;4665;51.368;6.782;2022-09-09T07:09:10;100519.16;;;15.82;100.00
9257;BME280;4665;51.368;6.782;2022-09-09T07:11:39;100532.25;;;15.92;100.00
9257;BME280;4665;51.368;6.782;2022-09-09T07:14:07;100519.28;;;15.95;100.00
9257;BME280;4665;51.368;6.782;2022-09-09T07:16:33;100523.00;;;15.94;100.00
9257;BME280;4665;51.368;6.782;2022-09-09T07:18:58;100530.78;;;15.89;100.00
9257;BME280;4665;51.368;6.782;2022-09-09T07:21:26;100522.69;;;15.83;100.00
9257;BME280;4665;51.368;6.782;2022-09-09T07:23:52;100533.25;;;15.84;100.00
9257;BME280;4665;51.368;6.782;2022-09-09T07:26:21;100524.13;;;15.78;100.00
9257;BME280;4665;51.368;6.782;2022-09-09T07:28:47;100526.22;;;15.83;100.00
9257;BME280;4665;51.368;6.782;2022-09-09T07:31:20;100516.44;;;15.75;100.00
9257;BME280;4665;51.368;6.782;2022-09-09T07:33:47;100525.72;;;15.73;100.00
9257;BME280;4665;51.368;6.782;2022-09-09T07:36:16;100533.56;;;15.74;100.00
9257;BME280;4665;51.368;6.782;2022-09-09T07:38:44;100534.66;;;15.80;100.00
9257;BME280;4665;51.368;6.782;2022-09-09T07:41:13;100539.78;;;15.75;100.00
9257;BME280;4665;51.368;6.782;2022-09-09T07:43:43;100540.81;;;15.74;100.00
9257;BME280;4665;51.368;6.782;2022-09-09T07:46:10;100546.19;;;15.74;100.00
9257;BME280;4665;51.368;6.782;2022-09-09T07:48:37;100565.88;;;15.81;100.00
9257;BME280;4665;51.368;6.782;2022-09-09T07:51:11;100540.16;;;15.72;100.00
9257;BME280;4665;51.368;6.782;2022-09-09T07:53:38;100538.94;;;15.74;100.00
9257;BME280;4665;51.368;6.782;2022-09-09T07:56:07;100560.56;;;15.88;100.00
9257;BME280;4665;51.368;6.782;2022-09-09T07:58:33;100555.19;;;15.88;100.00
9257;BME280;4665;51.368;6.782;2022-09-09T08:00:58;100559.31;;;15.90;100.00
9257;BME280;4665;51.368;6.782;2022-09-09T08:03:24;100563.53;;;15.99;100.00
9257;BME280;4665;51.368;6.782;2022-09-09T08:05:49;100563.78;;;16.05;100.00
9257;BME280;4665;51.368;6.782;2022-09-09T08:08:15;100559.03;;;16.07;100.00
9257;BME280;4665;51.368;6.782;2022-09-09T08:10:42;100570.66;;;16.14;100.00
9257;BME280;4665;51.368;6.782;2022-09-09T08:13:08;100559.84;;;16.07;100.00
9257;BME280;4665;51.368;6.782;2022-09-09T08:15:34;100561.97;;;16.12;99.92
9257;BME280;4665;51.368;6.782;2022-09-09T08:17:59;100564.75;;;16.25;99.01
9257;BME280;4665;51.368;6.782;2022-09-09T08:20:25;100544.66;;;16.21;100.00
9257;BME280;4665;51.368;6.782;2022-09-09T08:22:50;100553.78;;;16.27;96.26
9257;BME280;4665;51.368;6.782;2022-09-09T08:25:15;100555.09;;;16.37;94.59
9257;BME280;4665;51.368;6.782;2022-09-09T08:27:41;100566.50;;;16.46;95.61
9257;BME280;4665;51.368;6.782;2022-09-09T08:30:07;100540.63;;;16.38;94.72
9257;BME280;4665;51.368;6.782;2022-09-09T08:32:32;100557.22;;;16.49;94.14
9257;BME280;4665;51.368;6.782;2022-09-09T08:34:58;100552.06;;;16.54;95.41
9257;BME280;4665;51.368;6.782;2022-09-09T08:37:23;100554.84;;;16.67;92.48
9257;BME280;4665;51.368;6.782;2022-09-09T08:39:48;100567.53;;;16.80;92.17
9257;BME280;4665;51.368;6.782;2022-09-09T08:42:41;100567.78;;;16.92;90.33
9257;BME280;4665;51.368;6.782;2022-09-09T08:45:29;100570.31;;;17.00;89.10
9257;BME280;4665;51.368;6.782;2022-09-09T08:50:36;100566.41;;;17.09;88.95
9257;BME280;4665;51.368;6.782;2022-09-09T08:58:16;100558.75;;;17.19;85.08
9257;BME280;4665;51.368;6.782;2022-09-09T09:11:54;100569.53;;;17.26;84.35
9257;BME280;4665;51.368;6.782;2022-09-09T09:14:23;100574.72;;;17.28;85.26
9257;BME280;4665;51.368;6.782;2022-09-09T09:17:04;100569.13;;;17.36;86.41
9257;BME280;4665;51.368;6.782;2022-09-09T09:19:38;100570.19;;;17.41;84.79
9257;BME280;4665;51.368;6.782;2022-09-09T09:22:48;100572.91;;;17.48;82.38
9257;BME280;4665;51.368;6.782;2022-09-09T09:25:23;100575.19;;;17.51;83.82
9257;BME280;4665;51.368;6.782;2022-09-09T09:28:02;100573.72;;;17.49;84.15
9257;BME280;4665;51.368;6.782;2022-09-09T09:30:36;100572.69;;;17.50;84.85
9257;BME280;4665;51.368;6.782;2022-09-09T09:33:16;100568.97;;;17.44;84.80
9257;BME280;4665;51.368;6.782;2022-09-09T09:35:43;100577.03;;;17.44;83.65
9257;BME280;4665;51.368;6.782;2022-09-09T09:38:20;100569.78;;;17.44;82.99
9257;BME280;4665;51.368;6.782;2022-09-09T09:40:58;100571.25;;;17.47;85.29
9257;BME280;4665;51.368;6.782;2022-09-09T09:43:27;100578.69;;;17.45;83.81
9257;BME280;4665;51.368;6.782;2022-09-09T09:45:53;100581.38;;;17.45;84.21
9257;BME280;4665;51.368;6.782;2022-09-09T09:48:18;100590.09;;;17.47;84.88
9257;BME280;4665;51.368;6.782;2022-09-09T09:53:22;100574.16;;;17.72;81.70
9257;BME280;4665;51.368;6.782;2022-09-09T09:56:01;100585.63;;;17.94;77.11
9257;BME280;4665;51.368;6.782;2022-09-09T09:58:30;100578.56;;;17.93;77.08
9257;BME280;4665;51.368;6.782;2022-09-09T10:00:57;100572.53;;;17.98;76.13
9257;BME280;4665;51.368;6.782;2022-09-09T10:03:32;100578.31;;;18.15;75.06
9257;BME280;4665;51.368;6.782;2022-09-09T10:06:03;100581.63;;;18.37;79.67
9257;BME280;4665;51.368;6.782;2022-09-09T10:08:28;100579.47;;;18.59;73.72
9257;BME280;4665;51.368;6.782;2022-09-09T10:14:00;100573.28;;;18.51;72.41
9257;BME280;4665;51.368;6.782;2022-09-09T10:19:28;100565.25;;;18.38;74.07
9257;BME280;4665;51.368;6.782;2022-09-09T10:30:21;100564.22;;;18.26;74.48
9257;BME280;4665;51.368;6.782;2022-09-09T10:32:49;100563.38;;;18.19;74.86
9257;BME280;4665;51.368;6.782;2022-09-09T10:35:27;100564.25;;;18.13;71.27
9257;BME280;4665;51.368;6.782;2022-09-09T10:40:44;100561.75;;;18.11;74.63
9257;BME280;4665;51.368;6.782;2022-09-09T10:43:30;100556.38;;;18.04;74.38
9257;BME280;4665;51.368;6.782;2022-09-09T10:57:24;100542.22;;;18.29;73.91
9257;BME280;4665;51.368;6.782;2022-09-09T10:59:53;100537.22;;;18.33;74.91
9257;BME280;4665;51.368;6.782;2022-09-09T11:02:33;100533.88;;;18.50;74.11
9257;BME280;4665;51.368;6.782;2022-09-09T11:08:26;100531.53;;;18.61;76.18
9257;BME280;4665;51.368;6.782;2022-09-09T11:13:46;100533.44;;;18.54;73.23
9257;BME280;4665;51.368;6.782;2022-09-09T11:19:40;100541.31;;;18.55;71.15
9257;BME280;4665;51.368;6.782;2022-09-09T11:25:16;100529.25;;;18.64;70.08
9257;BME280;4665;51.368;6.782;2022-09-09T11:41:51;100533.13;;;18.75;71.30
9257;BME280;4665;51.368;6.782;2022-09-09T11:44:23;100539.59;;;18.81;71.61
9257;BME280;4665;51.368;6.782;2022-09-09T11:46:53;100538.78;;;18.80;71.70
9257;BME280;4665;51.368;6.782;2022-09-09T11:49:29;100542.09;;;18.82;72.49
9257;BME280;4665;51.368;6.782;2022-09-09T11:52:35;100551.19;;;18.88;73.29
9257;BME280;4665;51.368;6.782;2022-09-09T11:55:24;100547.19;;;18.97;71.80
9257;BME280;4665;51.368;6.782;2022-09-09T11:58:31;100534.66;;;19.09;69.54
9257;BME280;4665;51.368;6.782;2022-09-09T12:00:49;100539.00;;;19.17;71.46
9257;BME280;4665;51.368;6.782;2022-09-09T12:06:24;100536.75;;;19.07;70.58
9257;BME280;4665;51.368;6.782;2022-09-09T12:08:55;100543.84;;;19.02;70.86
9257;BME280;4665;51.368;6.782;2022-09-09T12:11:29;100544.31;;;18.92;72.10
9257;BME280;4665;51.368;6.782;2022-09-09T12:13:57;100536.25;;;18.85;71.96
9257;BME280;4665;51.368;6.782;2022-09-09T12:21:51;100541.72;;;19.10;70.90
9257;BME280;4665;51.368;6.782;2022-09-09T12:29:43;100536.56;;;19.41;70.33
9257;BME280;4665;51.368;6.782;2022-09-09T12:32:21;100533.94;;;19.27;69.82
9257;BME280;4665;51.368;6.782;2022-09-09T12:34:47;100546.03;;;19.18;70.72
9257;BME280;4665;51.368;6.782;2022-09-09T12:39:58;100543.22;;;19.00;72.40
9257;BME280;4665;51.368;6.782;2022-09-09T12:42:25;100536.47;;;18.77;76.20
9257;BME280;4665;51.368;6.782;2022-09-09T12:44:59;100550.25;;;18.56;79.79
9257;BME280;4665;51.368;6.782;2022-09-09T12:47:32;100555.72;;;18.29;82.28
9257;BME280;4665;51.368;6.782;2022-09-09T12:50:00;100558.25;;;18.04;84.30
9257;BME280;4665;51.368;6.782;2022-09-09T12:52:32;100558.19;;;17.71;88.80
9257;BME280;4665;51.368;6.782;2022-09-09T12:55:03;100556.34;;;17.64;91.55
9257;BME280;4665;51.368;6.782;2022-09-09T12:57:37;100545.97;;;17.48;93.29
9257;BME280;4665;51.368;6.782;2022-09-09T13:00:13;100566.84;;;17.26;94.43
9257;BME280;4665;51.368;6.782;2022-09-09T13:02:52;100579.06;;;17.15;98.59
9257;BME280;4665;51.368;6.782;2022-09-09T13:05:21;100562.88;;;17.09;100.00
9257;BME280;4665;51.368;6.782;2022-09-09T13:07:47;100571.50;;;16.91;100.00
9257;BME280;4665;51.368;6.782;2022-09-09T13:10:15;100571.97;;;16.66;100.00
9257;BME280;4665;51.368;6.782;2022-09-09T13:12:44;100565.09;;;16.50;100.00
9257;BME280;4665;51.368;6.782;2022-09-09T13:15:19;100557.13;;;16.35;100.00
9257;BME280;4665;51.368;6.782;2022-09-09T13:17:51;100540.78;;;16.30;100.00
9257;BME280;4665;51.368;6.782;2022-09-09T13:20:18;100547.81;;;16.31;100.00
9257;BME280;4665;51.368;6.782;2022-09-09T13:22:45;100523.97;;;16.22;100.00
9257;BME280;4665;51.368;6.782;2022-09-09T13:27:39;100537.34;;;16.50;100.00
9257;BME280;4665;51.368;6.782;2022-09-09T13:33:05;100527.31;;;16.65;100.00
9257;BME280;4665;51.368;6.782;2022-09-09T13:35:32;100529.63;;;16.75;100.00
9257;BME280;4665;51.368;6.782;2022-09-09T13:37:59;100520.59;;;16.89;100.00
9257;BME280;4665;51.368;6.782;2022-09-09T13:40:31;100515.03;;;16.97;100.00
9257;BME280;4665;51.368;6.782;2022-09-09T13:42:57;100521.28;;;17.11;100.00
9257;BME280;4665;51.368;6.782;2022-09-09T13:45:25;100513.00;;;17.26;100.00
9257;BME280;4665;51.368;6.782;2022-09-09T13:47:54;100502.88;;;17.35;100.00
9257;BME280;4665;51.368;6.782;2022-09-09T13:50:30;100519.25;;;17.53;100.00
9257;BME280;4665;51.368;6.782;2022-09-09T13:52:57;100507.25;;;17.62;99.88
9257;BME280;4665;51.368;6.782;2022-09-09T13:55:27;100511.63;;;17.83;93.81
9257;BME280;4665;51.368;6.782;2022-09-09T13:58:03;100512.63;;;17.96;96.31
9257;BME280;4665;51.368;6.782;2022-09-09T14:00:33;100505.53;;;18.21;90.74
9257;BME280;4665;51.368;6.782;2022-09-09T14:02:59;100503.63;;;18.28;89.23
9257;BME280;4665;51.368;6.782;2022-09-09T14:05:29;100496.59;;;18.27;86.00
9257;BME280;4665;51.368;6.782;2022-09-09T14:07:55;100502.34;;;18.44;86.07
9257;BME280;4665;51.368;6.782;2022-09-09T14:10:20;100489.91;;;18.43;86.26
9257;BME280;4665;51.368;6.782;2022-09-09T14:12:47;100501.06;;;18.54;89.19
9257;BME280;4665;51.368;6.782;2022-09-09T14:15:13;100498.19;;;18.48;88.74
9257;BME280;4665;51.368;6.782;2022-09-09T14:17:39;100504.19;;;18.50;86.04
9257;BME280;4665;51.368;6.782;2022-09-09T14:20:06;100501.94;;;18.47;84.22
9257;BME280;4665;51.368;6.782;2022-09-09T14:22:32;100488.66;;;18.46;84.48
9257;BME280;4665;51.368;6.782;2022-09-09T14:24:58;100488.19;;;18.56;84.17
9257;BME280;4665;51.368;6.782;2022-09-09T14:27:23;100492.50;;;18.63;85.78
9257;BME280;4665;51.368;6.782;2022-09-09T14:29:51;100506.41;;;18.67;85.80
9257;BME280;4665;51.368;6.782;2022-09-09T14:32:16;100494.22;;;18.51;84.33
9257;BME280;4665;51.368;6.782;2022-09-09T14:34:41;100516.44;;;18.46;84.74
9257;BME280;4665;51.368;6.782;2022-09-09T14:37:07;100538.56;;;17.90;89.11
9257;BME280;4665;51.368;6.782;2022-09-09T14:39:32;100544.50;;;16.77;96.72
9257;BME280;4665;51.368;6.782;2022-09-09T14:41:58;100558.31;;;16.26;100.00
9257;BME280;4665;51.368;6.782;2022-09-09T14:44:23;100559.66;;;15.81;100.00
9257;BME280;4665;51.368;6.782;2022-09-09T14:46:48;100547.38;;;15.50;100.00
9257;BME280;4665;51.368;6.782;2022-09-09T14:49:16;100558.28;;;15.27;100.00
9257;BME280;4665;51.368;6.782;2022-09-09T14:51:42;100549.72;;;15.17;100.00
9257;BME280;4665;51.368;6.782;2022-09-09T14:54:07;100548.19;;;15.07;100.00
9257;BME280;4665;51.368;6.782;2022-09-09T14:56:33;100543.91;;;15.13;100.00
9257;BME280;4665;51.368;6.782;2022-09-09T14:59:03;100547.44;;;15.13;100.00
9257;BME280;4665;51.368;6.782;2022-09-09T15:01:30;100532.56;;;15.11;100.00
9257;BME280;4665;51.368;6.782;2022-09-09T15:03:57;100549.47;;;15.11;100.00
9257;BME280;4665;51.368;6.782;2022-09-09T15:06:24;100529.41;;;15.07;100.00
9257;BME280;4665;51.368;6.782;2022-09-09T15:08:52;100518.69;;;15.07;100.00
9257;BME280;4665;51.368;6.782;2022-09-09T15:11:18;100528.53;;;15.22;100.00
9257;BME280;4665;51.368;6.782;2022-09-09T15:13:44;100527.59;;;15.29;100.00
9257;BME280;4665;51.368;6.782;2022-09-09T15:16:12;100515.50;;;15.19;100.00
9257;BME280;4665;51.368;6.782;2022-09-09T15:18:38;100496.91;;;15.17;100.00
9257;BME280;4665;51.368;6.782;2022-09-09T15:21:19;100505.47;;;15.27;100.00
9257;BME280;4665;51.368;6.782;2022-09-09T15:23:45;100504.25;;;15.30;100.00